This is the latest recevied weather packets stored in our database for station/object SP9WPN-12. If no packets are shown the sender has not sent any weather packets the latest 10 day(s).
| Time | Temp. | Humidity | Pressure | Rain* | Wind** | Luminosity | Snow |
|---|---|---|---|---|---|---|---|
| 1777321739 | 5° C | 63% | 1023.4 hPa | - | - | - | - |
| 1777321141 | 5.56° C | 61% | 1023.3 hPa | - | - | - | - |
| 1777320543 | 6.11° C | 62% | 1023.3 hPa | - | - | - | - |
| 1777319945 | 6.11° C | 59% | 1023.3 hPa | - | - | - | - |
| 1777319347 | 6.11° C | 60% | 1023.3 hPa | - | - | - | - |
| 1777318749 | 6.67° C | 57% | 1023.3 hPa | - | - | - | - |
| 1777318151 | 7.22° C | 53% | 1023.1 hPa | - | - | - | - |
| 1777317553 | 6.67° C | 53% | 1023.1 hPa | - | - | - | - |
| 1777316955 | 7.22° C | 51% | 1023 hPa | - | - | - | - |
| 1777316358 | 7.78° C | 49% | 1022.8 hPa | - | - | - | - |
| 1777315761 | 7.78° C | 49% | 1022.8 hPa | - | - | - | - |
| 1777315163 | 8.89° C | 43% | 1022.6 hPa | - | - | - | - |
| 1777314565 | 9.44° C | 42% | 1022.5 hPa | - | - | - | - |
| 1777313968 | 10° C | 39% | 1022.3 hPa | - | - | - | - |
| 1777313371 | 10.56° C | 38% | 1022 hPa | - | - | - | - |
| 1777312775 | 10.56° C | 37% | 1022 hPa | - | - | - | - |
| 1777312177 | 11.67° C | 35% | 1021.8 hPa | - | - | - | - |
| 1777311579 | 11.67° C | 34% | 1021.7 hPa | - | - | - | - |
| 1777310982 | 12.22° C | 32% | 1021.6 hPa | - | - | - | - |
| 1777310385 | 12.78° C | 31% | 1021.5 hPa | - | - | - | - |
| 1777309787 | 13.33° C | 30% | 1021.3 hPa | - | - | - | - |
| 1777309190 | 13.89° C | 27% | 1021 hPa | - | - | - | - |
| 1777308592 | 14.44° C | 28% | 1021 hPa | - | - | - | - |
| 1777307995 | 14.44° C | 28% | 1021 hPa | - | - | - | - |
| 1777307397 | 14.44° C | 27% | 1021 hPa | - | - | - | - |
* Rain since midnight (hover to see other rain measurements)
** Current wind speed in m/s (hover to see current wind gust speed)